sensor_id;sensor_type;location;lat;lon;timestamp;pressure;altitude;pressure_sealevel;temperature;humidity
56330;BME280;42236;48.058;10.632;2024-03-08T00:00:17;94487.13;;;0.05;100.00
56330;BME280;42236;48.058;10.632;2024-03-08T00:03:06;94482.44;;;-0.04;100.00
56330;BME280;42236;48.058;10.632;2024-03-08T00:05:52;94489.88;;;-0.06;100.00
56330;BME280;42236;48.058;10.632;2024-03-08T00:08:37;94487.00;;;-0.09;100.00
56330;BME280;42236;48.058;10.632;2024-03-08T00:11:23;94485.13;;;-0.09;100.00
56330;BME280;42236;48.058;10.632;2024-03-08T00:14:11;94485.34;;;-0.05;100.00
56330;BME280;42236;48.058;10.632;2024-03-08T00:16:57;94481.66;;;-0.04;100.00
56330;BME280;42236;48.058;10.632;2024-03-08T00:19:42;94479.00;;;-0.04;100.00
56330;BME280;42236;48.058;10.632;2024-03-08T00:22:28;94476.13;;;-0.13;100.00
56330;BME280;42236;48.058;10.632;2024-03-08T00:25:16;94474.00;;;-0.11;100.00
56330;BME280;42236;48.058;10.632;2024-03-08T00:28:01;94478.53;;;-0.11;100.00
56330;BME280;42236;48.058;10.632;2024-03-08T00:30:47;94465.53;;;-0.13;100.00
56330;BME280;42236;48.058;10.632;2024-03-08T00:33:33;94469.25;;;-0.14;100.00
56330;BME280;42236;48.058;10.632;2024-03-08T00:36:18;94466.59;;;-0.14;100.00
56330;BME280;42236;48.058;10.632;2024-03-08T00:39:05;94466.59;;;-0.14;100.00
56330;BME280;42236;48.058;10.632;2024-03-08T00:41:54;94464.00;;;-0.19;100.00
56330;BME280;42236;48.058;10.632;2024-03-08T00:44:39;94461.63;;;-0.20;100.00
56330;BME280;42236;48.058;10.632;2024-03-08T00:47:28;94448.63;;;-0.22;100.00
56330;BME280;42236;48.058;10.632;2024-03-08T00:50:13;94448.41;;;-0.26;100.00
56330;BME280;42236;48.058;10.632;2024-03-08T00:52:59;94444.44;;;-0.28;100.00
56330;BME280;42236;48.058;10.632;2024-03-08T00:55:45;94446.06;;;-0.32;100.00
56330;BME280;42236;48.058;10.632;2024-03-08T00:58:31;94436.56;;;-0.38;100.00
56330;BME280;42236;48.058;10.632;2024-03-08T01:01:18;94432.63;;;-0.46;100.00
56330;BME280;42236;48.058;10.632;2024-03-08T01:04:04;94439.53;;;-0.45;100.00
56330;BME280;42236;48.058;10.632;2024-03-08T01:06:50;94442.69;;;-0.43;100.00
56330;BME280;42236;48.058;10.632;2024-03-08T01:09:36;94437.63;;;-0.39;100.00
56330;BME280;42236;48.058;10.632;2024-03-08T01:12:21;94441.59;;;-0.37;100.00
56330;BME280;42236;48.058;10.632;2024-03-08T01:15:09;94438.94;;;-0.37;100.00
56330;BME280;42236;48.058;10.632;2024-03-08T01:17:55;94428.09;;;-0.40;100.00
56330;BME280;42236;48.058;10.632;2024-03-08T01:20:41;94430.25;;;-0.43;100.00
56330;BME280;42236;48.058;10.632;2024-03-08T01:23:27;94423.06;;;-0.42;100.00
56330;BME280;42236;48.058;10.632;2024-03-08T01:26:12;94422.03;;;-0.41;100.00
56330;BME280;42236;48.058;10.632;2024-03-08T01:29:01;94421.22;;;-0.41;100.00
56330;BME280;42236;48.058;10.632;2024-03-08T01:31:48;94415.91;;;-0.41;100.00
56330;BME280;42236;48.058;10.632;2024-03-08T01:34:34;94410.88;;;-0.38;100.00
56330;BME280;42236;48.058;10.632;2024-03-08T01:37:19;94408.22;;;-0.38;100.00
56330;BME280;42236;48.058;10.632;2024-03-08T01:40:06;94404.47;;;-0.37;100.00
56330;BME280;42236;48.058;10.632;2024-03-08T01:42:54;94408.22;;;-0.38;100.00
56330;BME280;42236;48.058;10.632;2024-03-08T01:45:39;94403.94;;;-0.34;100.00
56330;BME280;42236;48.058;10.632;2024-03-08T01:48:26;94400.78;;;-0.36;100.00
56330;BME280;42236;48.058;10.632;2024-03-08T01:51:12;94397.84;;;-0.34;100.00
56330;BME280;42236;48.058;10.632;2024-03-08T01:54:01;94394.91;;;-0.33;100.00
56330;BME280;42236;48.058;10.632;2024-03-08T01:56:48;94397.78;;;-0.29;100.00
56330;BME280;42236;48.058;10.632;2024-03-08T01:59:34;94387.72;;;-0.27;100.00
56330;BME280;42236;48.058;10.632;2024-03-08T02:02:20;94381.06;;;-0.25;100.00
56330;BME280;42236;48.058;10.632;2024-03-08T02:05:07;94378.13;;;-0.23;100.00
56330;BME280;42236;48.058;10.632;2024-03-08T02:07:54;94379.72;;;-0.22;100.00
56330;BME280;42236;48.058;10.632;2024-03-08T02:10:44;94378.66;;;-0.21;100.00
56330;BME280;42236;48.058;10.632;2024-03-08T02:13:30;94374.09;;;-0.15;100.00
56330;BME280;42236;48.058;10.632;2024-03-08T02:16:25;94370.03;;;-0.08;100.00
56330;BME280;42236;48.058;10.632;2024-03-08T02:19:10;94370.28;;;-0.04;100.00
56330;BME280;42236;48.058;10.632;2024-03-08T02:21:56;94377.94;;;-0.03;100.00
56330;BME280;42236;48.058;10.632;2024-03-08T02:24:43;94369.97;;;-0.03;100.00
56330;BME280;42236;48.058;10.632;2024-03-08T02:27:29;94368.16;;;-0.02;100.00
56330;BME280;42236;48.058;10.632;2024-03-08T02:30:18;94362.53;;;-0.01;100.00
56330;BME280;42236;48.058;10.632;2024-03-08T02:33:04;94367.34;;;-0.03;100.00
56330;BME280;42236;48.058;10.632;2024-03-08T02:35:50;94375.84;;;-0.06;100.00
56330;BME280;42236;48.058;10.632;2024-03-08T02:38:36;94366.03;;;-0.05;100.00
56330;BME280;42236;48.058;10.632;2024-03-08T02:41:22;94367.63;;;-0.04;100.00
56330;BME280;42236;48.058;10.632;2024-03-08T02:44:08;94358.06;;;-0.05;100.00
56330;BME280;42236;48.058;10.632;2024-03-08T02:46:54;94352.78;;;-0.05;100.00
56330;BME280;42236;48.058;10.632;2024-03-08T02:49:40;94358.38;;;-0.07;100.00
56330;BME280;42236;48.058;10.632;2024-03-08T02:52:26;94347.25;;;-0.09;100.00
56330;BME280;42236;48.058;10.632;2024-03-08T02:55:11;94349.84;;;-0.04;100.00
56330;BME280;42236;48.058;10.632;2024-03-08T02:58:00;94344.78;;;0.00;100.00
56330;BME280;42236;48.058;10.632;2024-03-08T03:00:46;94347.44;;;0.00;100.00
56330;BME280;42236;48.058;10.632;2024-03-08T03:03:32;94340.53;;;-0.01;100.00
56330;BME280;42236;48.058;10.632;2024-03-08T03:06:18;94340.28;;;0.01;100.00
56330;BME280;42236;48.058;10.632;2024-03-08T03:09:06;94342.41;;;-0.02;100.00
56330;BME280;42236;48.058;10.632;2024-03-08T03:11:52;94336.53;;;0.02;100.00
56330;BME280;42236;48.058;10.632;2024-03-08T03:14:37;94329.09;;;0.04;100.00
56330;BME280;42236;48.058;10.632;2024-03-08T03:17:26;94336.50;;;0.07;100.00
56330;BME280;42236;48.058;10.632;2024-03-08T03:20:12;94328.53;;;0.07;100.00
56330;BME280;42236;48.058;10.632;2024-03-08T03:23:08;94334.34;;;0.09;100.00
56330;BME280;42236;48.058;10.632;2024-03-08T03:25:54;94322.16;;;0.08;100.00
56330;BME280;42236;48.058;10.632;2024-03-08T03:28:42;94323.75;;;0.09;100.00
56330;BME280;42236;48.058;10.632;2024-03-08T03:31:28;94323.22;;;0.07;100.00
56330;BME280;42236;48.058;10.632;2024-03-08T03:34:14;94319.00;;;0.06;100.00
56330;BME280;42236;48.058;10.632;2024-03-08T03:37:00;94325.38;;;0.05;100.00
56330;BME280;42236;48.058;10.632;2024-03-08T03:39:48;94312.75;;;-0.04;100.00
56330;BME280;42236;48.058;10.632;2024-03-08T03:42:34;94316.69;;;-0.01;100.00
56330;BME280;42236;48.058;10.632;2024-03-08T03:45:19;94315.31;;;0.02;100.00
56330;BME280;42236;48.058;10.632;2024-03-08T03:48:06;94313.75;;;0.01;100.00
56330;BME280;42236;48.058;10.632;2024-03-08T03:50:54;94312.41;;;0.03;100.00
56330;BME280;42236;48.058;10.632;2024-03-08T03:53:39;94304.16;;;0.05;100.00
56330;BME280;42236;48.058;10.632;2024-03-08T03:56:26;94306.81;;;0.05;100.00
56330;BME280;42236;48.058;10.632;2024-03-08T03:59:12;94305.44;;;0.07;100.00
56330;BME280;42236;48.058;10.632;2024-03-08T04:01:57;94307.63;;;0.05;100.00
56330;BME280;42236;48.058;10.632;2024-03-08T04:04:43;94304.16;;;0.05;100.00
56330;BME280;42236;48.058;10.632;2024-03-08T04:07:31;94309.00;;;-0.03;100.00
56330;BME280;42236;48.058;10.632;2024-03-08T04:10:17;94302.66;;;-0.02;100.00
56330;BME280;42236;48.058;10.632;2024-03-08T04:13:02;94304.78;;;-0.04;100.00
56330;BME280;42236;48.058;10.632;2024-03-08T04:15:49;94303.25;;;-0.10;100.00
56330;BME280;42236;48.058;10.632;2024-03-08T04:18:35;94301.47;;;-0.14;100.00
56330;BME280;42236;48.058;10.632;2024-03-08T04:21:26;94300.94;;;-0.16;100.00
56330;BME280;42236;48.058;10.632;2024-03-08T04:24:12;94296.44;;;-0.16;100.00
56330;BME280;42236;48.058;10.632;2024-03-08T04:26:58;94294.28;;;-0.14;100.00
56330;BME280;42236;48.058;10.632;2024-03-08T04:29:44;94286.91;;;-0.17;100.00
56330;BME280;42236;48.058;10.632;2024-03-08T04:32:29;94285.81;;;-0.16;100.00
56330;BME280;42236;48.058;10.632;2024-03-08T04:35:17;94285.88;;;-0.21;100.00
56330;BME280;42236;48.058;10.632;2024-03-08T04:38:05;94287.97;;;-0.18;100.00
56330;BME280;42236;48.058;10.632;2024-03-08T04:40:51;94285.31;;;-0.18;100.00
56330;BME280;42236;48.058;10.632;2024-03-08T04:43:37;94279.44;;;-0.15;100.00
56330;BME280;42236;48.058;10.632;2024-03-08T04:46:23;94274.13;;;-0.15;100.00
56330;BME280;42236;48.058;10.632;2024-03-08T04:49:09;94278.09;;;-0.12;100.00
56330;BME280;42236;48.058;10.632;2024-03-08T04:51:56;94276.25;;;-0.12;100.00
56330;BME280;42236;48.058;10.632;2024-03-08T04:54:41;94273.59;;;-0.12;100.00
56330;BME280;42236;48.058;10.632;2024-03-08T04:57:27;94267.53;;;-0.17;100.00
56330;BME280;42236;48.058;10.632;2024-03-08T05:00:13;94277.34;;;-0.18;100.00
56330;BME280;42236;48.058;10.632;2024-03-08T05:03:00;94273.94;;;-0.18;100.00
56330;BME280;42236;48.058;10.632;2024-03-08T05:05:46;94275.28;;;-0.21;100.00
56330;BME280;42236;48.058;10.632;2024-03-08T05:08:32;94263.88;;;-0.22;100.00
56330;BME280;42236;48.058;10.632;2024-03-08T05:11:18;94266.81;;;-0.23;100.00
56330;BME280;42236;48.058;10.632;2024-03-08T05:14:04;94272.38;;;-0.25;100.00
56330;BME280;42236;48.058;10.632;2024-03-08T05:16:50;94267.28;;;-0.16;100.00
56330;BME280;42236;48.058;10.632;2024-03-08T05:19:36;94271.50;;;-0.15;100.00
56330;BME280;42236;48.058;10.632;2024-03-08T05:22:22;94260.41;;;-0.17;100.00
56330;BME280;42236;48.058;10.632;2024-03-08T05:25:08;94264.03;;;-0.13;100.00
56330;BME280;42236;48.058;10.632;2024-03-08T05:27:54;94259.53;;;-0.12;100.00
56330;BME280;42236;48.058;10.632;2024-03-08T05:30:41;94258.97;;;-0.09;100.00
56330;BME280;42236;48.058;10.632;2024-03-08T05:33:26;94263.25;;;-0.13;100.00
56330;BME280;42236;48.058;10.632;2024-03-08T05:36:12;94266.69;;;-0.13;100.00
56330;BME280;42236;48.058;10.632;2024-03-08T05:38:58;94265.13;;;-0.14;100.00
56330;BME280;42236;48.058;10.632;2024-03-08T05:41:44;94265.91;;;-0.13;100.00
56330;BME280;42236;48.058;10.632;2024-03-08T05:44:29;94262.19;;;-0.12;100.00
56330;BME280;42236;48.058;10.632;2024-03-08T05:47:16;94263.72;;;-0.06;100.00
56330;BME280;42236;48.058;10.632;2024-03-08T05:50:02;94266.56;;;-0.03;100.00
56330;BME280;42236;48.058;10.632;2024-03-08T05:52:47;94268.13;;;0.04;100.00
56330;BME280;42236;48.058;10.632;2024-03-08T05:55:33;94261.19;;;0.08;100.00
56330;BME280;42236;48.058;10.632;2024-03-08T05:58:21;94250.00;;;0.11;100.00
56330;BME280;42236;48.058;10.632;2024-03-08T06:01:07;94251.94;;;0.05;100.00
56330;BME280;42236;48.058;10.632;2024-03-08T06:03:53;94250.56;;;0.08;100.00
56330;BME280;42236;48.058;10.632;2024-03-08T06:06:41;94249.50;;;0.09;100.00
56330;BME280;42236;48.058;10.632;2024-03-08T06:09:27;94247.84;;;0.13;100.00
56330;BME280;42236;48.058;10.632;2024-03-08T06:12:12;94254.72;;;0.14;100.00
56330;BME280;42236;48.058;10.632;2024-03-08T06:15:04;94247.28;;;0.16;100.00
56330;BME280;42236;48.058;10.632;2024-03-08T06:17:50;94244.56;;;0.21;100.00
56330;BME280;42236;48.058;10.632;2024-03-08T06:20:38;94253.81;;;0.24;100.00
56330;BME280;42236;48.058;10.632;2024-03-08T06:23:23;94248.75;;;0.27;100.00
56330;BME280;42236;48.058;10.632;2024-03-08T06:26:09;94248.16;;;0.30;100.00
56330;BME280;42236;48.058;10.632;2024-03-08T06:28:55;94247.59;;;0.33;100.00
56330;BME280;42236;48.058;10.632;2024-03-08T06:31:41;94253.25;;;0.27;100.00
56330;BME280;42236;48.058;10.632;2024-03-08T06:34:27;94259.34;;;0.27;100.00
56330;BME280;42236;48.058;10.632;2024-03-08T06:37:12;94256.41;;;0.29;100.00
56330;BME280;42236;48.058;10.632;2024-03-08T06:40:00;94261.94;;;0.32;100.00
56330;BME280;42236;48.058;10.632;2024-03-08T06:42:46;94254.50;;;0.34;100.00
56330;BME280;42236;48.058;10.632;2024-03-08T06:45:32;94254.19;;;0.36;100.00
56330;BME280;42236;48.058;10.632;2024-03-08T06:48:18;94253.91;;;0.37;100.00
56330;BME280;42236;48.058;10.632;2024-03-08T06:51:04;94254.94;;;0.41;100.00
56330;BME280;42236;48.058;10.632;2024-03-08T06:53:50;94251.75;;;0.39;100.00
56330;BME280;42236;48.058;10.632;2024-03-08T06:56:37;94265.09;;;0.34;100.00
56330;BME280;42236;48.058;10.632;2024-03-08T06:59:23;94257.66;;;0.36;100.00
56330;BME280;42236;48.058;10.632;2024-03-08T07:02:09;94257.06;;;0.39;100.00
56330;BME280;42236;48.058;10.632;2024-03-08T07:04:54;94260.16;;;0.47;100.00
56330;BME280;42236;48.058;10.632;2024-03-08T07:07:41;94255.06;;;0.50;100.00
56330;BME280;42236;48.058;10.632;2024-03-08T07:10:27;94249.81;;;0.45;100.00
56330;BME280;42236;48.058;10.632;2024-03-08T07:13:14;94244.25;;;0.47;100.00
56330;BME280;42236;48.058;10.632;2024-03-08T07:15:59;94249.97;;;0.54;100.00
56330;BME280;42236;48.058;10.632;2024-03-08T07:18:46;94240.41;;;0.53;100.00
56330;BME280;42236;48.058;10.632;2024-03-08T07:21:31;94240.28;;;0.44;100.00
56330;BME280;42236;48.058;10.632;2024-03-08T07:24:17;94243.28;;;0.37;100.00
56330;BME280;42236;48.058;10.632;2024-03-08T07:27:06;94241.22;;;0.34;100.00
56330;BME280;42236;48.058;10.632;2024-03-08T07:29:51;94239.34;;;0.35;100.00
56330;BME280;42236;48.058;10.632;2024-03-08T07:32:37;94240.19;;;0.30;100.00
56330;BME280;42236;48.058;10.632;2024-03-08T07:35:23;94238.25;;;0.36;100.00
56330;BME280;42236;48.058;10.632;2024-03-08T07:38:09;94233.25;;;0.34;100.00
56330;BME280;42236;48.058;10.632;2024-03-08T07:40:55;94239.94;;;0.32;100.00
56330;BME280;42236;48.058;10.632;2024-03-08T07:43:42;94233.78;;;0.36;100.00
56330;BME280;42236;48.058;10.632;2024-03-08T07:46:28;94231.56;;;0.44;100.00
56330;BME280;42236;48.058;10.632;2024-03-08T07:49:14;94229.19;;;0.42;100.00
56330;BME280;42236;48.058;10.632;2024-03-08T07:52:00;94228.59;;;0.45;100.00
56330;BME280;42236;48.058;10.632;2024-03-08T07:54:46;94231.59;;;0.38;100.00
56330;BME280;42236;48.058;10.632;2024-03-08T07:57:31;94231.66;;;0.33;100.00
56330;BME280;42236;48.058;10.632;2024-03-08T08:00:18;94231.13;;;0.36;100.00
56330;BME280;42236;48.058;10.632;2024-03-08T08:03:04;94232.59;;;0.42;100.00
56330;BME280;42236;48.058;10.632;2024-03-08T08:05:50;94229.25;;;0.56;100.00
56330;BME280;42236;48.058;10.632;2024-03-08T08:08:36;94223.56;;;0.62;100.00
56330;BME280;42236;48.058;10.632;2024-03-08T08:11:22;94222.19;;;0.65;100.00
56330;BME280;42236;48.058;10.632;2024-03-08T08:14:07;94217.53;;;0.76;100.00
56330;BME280;42236;48.058;10.632;2024-03-08T08:16:55;94223.97;;;0.89;100.00
56330;BME280;42236;48.058;10.632;2024-03-08T08:19:42;94217.53;;;0.95;100.00
56330;BME280;42236;48.058;10.632;2024-03-08T08:22:28;94217.63;;;1.03;100.00
56330;BME280;42236;48.058;10.632;2024-03-08T08:25:14;94217.50;;;1.14;100.00
56330;BME280;42236;48.058;10.632;2024-03-08T08:28:00;94212.38;;;1.17;100.00
56330;BME280;42236;48.058;10.632;2024-03-08T08:30:49;94208.34;;;1.20;100.00
56330;BME280;42236;48.058;10.632;2024-03-08T08:33:35;94205.59;;;1.25;100.00
56330;BME280;42236;48.058;10.632;2024-03-08T08:36:21;94203.81;;;1.20;100.00
56330;BME280;42236;48.058;10.632;2024-03-08T08:39:07;94209.53;;;1.14;100.00
56330;BME280;42236;48.058;10.632;2024-03-08T08:41:58;94200.31;;;1.06;100.00
56330;BME280;42236;48.058;10.632;2024-03-08T08:44:44;94208.94;;;1.17;100.00
56330;BME280;42236;48.058;10.632;2024-03-08T08:47:30;94189.97;;;1.23;100.00
56330;BME280;42236;48.058;10.632;2024-03-08T08:50:16;94193.69;;;1.22;100.00
56330;BME280;42236;48.058;10.632;2024-03-08T08:53:08;94200.19;;;1.16;100.00
56330;BME280;42236;48.058;10.632;2024-03-08T08:55:54;94199.19;;;1.12;100.00
56330;BME280;42236;48.058;10.632;2024-03-08T08:58:40;94194.03;;;1.02;100.00
56330;BME280;42236;48.058;10.632;2024-03-08T09:01:28;94195.03;;;1.06;100.00
56330;BME280;42236;48.058;10.632;2024-03-08T09:04:14;94191.28;;;1.07;100.00
56330;BME280;42236;48.058;10.632;2024-03-08T09:07:00;94188.91;;;1.05;100.00
56330;BME280;42236;48.058;10.632;2024-03-08T09:09:46;94185.41;;;1.10;100.00
56330;BME280;42236;48.058;10.632;2024-03-08T09:12:32;94190.13;;;1.13;100.00
56330;BME280;42236;48.058;10.632;2024-03-08T09:15:18;94190.34;;;1.17;100.00
56330;BME280;42236;48.058;10.632;2024-03-08T09:18:04;94182.28;;;1.22;100.00
56330;BME280;42236;48.058;10.632;2024-03-08T09:20:51;94182.78;;;1.24;100.00
56330;BME280;42236;48.058;10.632;2024-03-08T09:23:38;94179.81;;;1.25;100.00
56330;BME280;42236;48.058;10.632;2024-03-08T09:26:25;94179.84;;;1.39;100.00
56330;BME280;42236;48.058;10.632;2024-03-08T09:29:12;94172.47;;;1.50;100.00
56330;BME280;42236;48.058;10.632;2024-03-08T09:31:57;94172.88;;;1.57;100.00
56330;BME280;42236;48.058;10.632;2024-03-08T09:34:43;94169.88;;;1.45;100.00
56330;BME280;42236;48.058;10.632;2024-03-08T09:37:29;94168.03;;;1.45;100.00
56330;BME280;42236;48.058;10.632;2024-03-08T09:40:14;94168.94;;;1.41;100.00
56330;BME280;42236;48.058;10.632;2024-03-08T09:43:01;94165.88;;;1.47;100.00
56330;BME280;42236;48.058;10.632;2024-03-08T09:45:48;94170.50;;;1.56;100.00
56330;BME280;42236;48.058;10.632;2024-03-08T09:48:35;94168.91;;;1.55;100.00
56330;BME280;42236;48.058;10.632;2024-03-08T09:51:28;94168.72;;;1.51;100.00
56330;BME280;42236;48.058;10.632;2024-03-08T09:54:14;94166.34;;;1.49;100.00
56330;BME280;42236;48.058;10.632;2024-03-08T09:57:04;94167.56;;;1.57;100.00
56330;BME280;42236;48.058;10.632;2024-03-08T09:59:50;94172.88;;;1.71;100.00
56330;BME280;42236;48.058;10.632;2024-03-08T10:02:36;94162.63;;;1.92;100.00
56330;BME280;42236;48.058;10.632;2024-03-08T10:05:21;94167.50;;;2.12;100.00
56330;BME280;42236;48.058;10.632;2024-03-08T10:08:08;94160.00;;;2.28;100.00
56330;BME280;42236;48.058;10.632;2024-03-08T10:10:55;94162.16;;;2.26;100.00
56330;BME280;42236;48.058;10.632;2024-03-08T10:13:41;94168.38;;;2.22;100.00
56330;BME280;42236;48.058;10.632;2024-03-08T10:16:29;94167.22;;;2.14;100.00
56330;BME280;42236;48.058;10.632;2024-03-08T10:19:15;94160.06;;;2.01;100.00
56330;BME280;42236;48.058;10.632;2024-03-08T10:22:02;94158.69;;;2.03;100.00
56330;BME280;42236;48.058;10.632;2024-03-08T10:24:50;94155.06;;;2.22;100.00
56330;BME280;42236;48.058;10.632;2024-03-08T10:27:36;94152.78;;;2.29;100.00
56330;BME280;42236;48.058;10.632;2024-03-08T10:30:22;94144.88;;;2.38;100.00
56330;BME280;42236;48.058;10.632;2024-03-08T10:33:07;94143.00;;;2.38;100.00
56330;BME280;42236;48.058;10.632;2024-03-08T10:35:53;94145.19;;;2.36;100.00
56330;BME280;42236;48.058;10.632;2024-03-08T10:38:43;94147.16;;;2.44;100.00
56330;BME280;42236;48.058;10.632;2024-03-08T10:41:32;94139.41;;;2.56;100.00
56330;BME280;42236;48.058;10.632;2024-03-08T10:50:10;94136.06;;;2.96;99.45
56330;BME280;42236;48.058;10.632;2024-03-08T10:52:58;94136.66;;;3.15;100.00
56330;BME280;42236;48.058;10.632;2024-03-08T10:55:46;94133.06;;;3.20;99.94
56330;BME280;42236;48.058;10.632;2024-03-08T10:58:33;94133.28;;;3.32;100.00
56330;BME280;42236;48.058;10.632;2024-03-08T11:01:21;94137.75;;;3.46;99.41
56330;BME280;42236;48.058;10.632;2024-03-08T11:04:06;94131.97;;;3.21;96.64
56330;BME280;42236;48.058;10.632;2024-03-08T11:06:52;94129.28;;;3.21;99.15
56330;BME280;42236;48.058;10.632;2024-03-08T11:09:40;94136.47;;;3.12;95.32
56330;BME280;42236;48.058;10.632;2024-03-08T11:12:28;94129.16;;;3.26;99.05
56330;BME280;42236;48.058;10.632;2024-03-08T11:15:20;94128.22;;;3.62;100.00
56330;BME280;42236;48.058;10.632;2024-03-08T11:18:06;94123.13;;;3.92;97.71
56330;BME280;42236;48.058;10.632;2024-03-08T11:20:55;94121.91;;;4.15;98.25
56330;BME280;42236;48.058;10.632;2024-03-08T11:23:43;94115.34;;;4.30;96.25
56330;BME280;42236;48.058;10.632;2024-03-08T11:26:29;94112.03;;;4.51;97.25
56330;BME280;42236;48.058;10.632;2024-03-08T11:29:36;94102.75;;;4.65;93.66
56330;BME280;42236;48.058;10.632;2024-03-08T11:32:27;94098.38;;;4.35;91.47
56330;BME280;42236;48.058;10.632;2024-03-08T11:35:22;94103.03;;;3.85;91.63
56330;BME280;42236;48.058;10.632;2024-03-08T11:38:11;94093.53;;;3.62;96.04
56330;BME280;42236;48.058;10.632;2024-03-08T11:40:58;94094.78;;;3.56;97.55
56330;BME280;42236;48.058;10.632;2024-03-08T11:43:44;94092.41;;;3.46;96.89
56330;BME280;42236;48.058;10.632;2024-03-08T11:46:29;94080.66;;;3.47;96.68
56330;BME280;42236;48.058;10.632;2024-03-08T11:49:15;94082.00;;;3.35;95.80
56330;BME280;42236;48.058;10.632;2024-03-08T11:52:01;94069.47;;;3.36;98.39
56330;BME280;42236;48.058;10.632;2024-03-08T11:54:53;94072.03;;;3.50;97.18
56330;BME280;42236;48.058;10.632;2024-03-08T11:57:40;94072.56;;;3.78;98.70
56330;BME280;42236;48.058;10.632;2024-03-08T12:00:27;94060.03;;;3.96;94.75
56330;BME280;42236;48.058;10.632;2024-03-08T12:03:19;94050.16;;;3.96;93.46
56330;BME280;42236;48.058;10.632;2024-03-08T12:06:05;94048.44;;;4.09;95.66
56330;BME280;42236;48.058;10.632;2024-03-08T12:08:51;94046.22;;;4.28;95.75
56330;BME280;42236;48.058;10.632;2024-03-08T12:11:37;94033.34;;;4.39;94.88
56330;BME280;42236;48.058;10.632;2024-03-08T12:14:22;94016.66;;;4.51;94.23
56330;BME280;42236;48.058;10.632;2024-03-08T12:17:10;94018.84;;;4.66;95.31
56330;BME280;42236;48.058;10.632;2024-03-08T12:19:56;94020.69;;;4.83;95.23
56330;BME280;42236;48.058;10.632;2024-03-08T12:22:43;94019.09;;;4.91;93.57
56330;BME280;42236;48.058;10.632;2024-03-08T12:25:32;94014.53;;;5.00;92.30
56330;BME280;42236;48.058;10.632;2024-03-08T12:28:20;94010.38;;;5.11;93.07
56330;BME280;42236;48.058;10.632;2024-03-08T12:31:07;94010.47;;;5.24;93.78
56330;BME280;42236;48.058;10.632;2024-03-08T12:33:56;93994.22;;;5.38;92.16
56330;BME280;42236;48.058;10.632;2024-03-08T12:36:45;93995.53;;;5.52;92.61
56330;BME280;42236;48.058;10.632;2024-03-08T12:39:34;93984.44;;;5.63;88.60
56330;BME280;42236;48.058;10.632;2024-03-08T12:42:19;93983.63;;;5.71;88.94
56330;BME280;42236;48.058;10.632;2024-03-08T12:45:06;93978.91;;;5.89;89.00
56330;BME280;42236;48.058;10.632;2024-03-08T12:47:55;93984.50;;;6.05;89.67
56330;BME280;42236;48.058;10.632;2024-03-08T12:50:41;93984.09;;;6.15;89.10
56330;BME280;42236;48.058;10.632;2024-03-08T12:53:30;93971.22;;;6.29;88.78
56330;BME280;42236;48.058;10.632;2024-03-08T12:56:29;93968.00;;;6.36;83.16
56330;BME280;42236;48.058;10.632;2024-03-08T12:59:14;93952.28;;;6.47;86.22
56330;BME280;42236;48.058;10.632;2024-03-08T13:02:01;93946.97;;;6.59;85.50
56330;BME280;42236;48.058;10.632;2024-03-08T13:04:49;93948.22;;;6.74;86.08
56330;BME280;42236;48.058;10.632;2024-03-08T13:07:41;93943.00;;;6.90;86.53
56330;BME280;42236;48.058;10.632;2024-03-08T13:10:31;93936.97;;;6.93;80.45
56330;BME280;42236;48.058;10.632;2024-03-08T13:13:17;93930.94;;;6.96;80.60
56330;BME280;42236;48.058;10.632;2024-03-08T13:16:03;93932.50;;;6.97;79.08
56330;BME280;42236;48.058;10.632;2024-03-08T13:18:49;93932.72;;;7.04;83.19
56330;BME280;42236;48.058;10.632;2024-03-08T13:21:34;93928.03;;;7.13;82.46
56330;BME280;42236;48.058;10.632;2024-03-08T13:24:21;93933.19;;;7.18;82.56
56330;BME280;42236;48.058;10.632;2024-03-08T13:27:08;93928.25;;;7.33;84.39
56330;BME280;42236;48.058;10.632;2024-03-08T13:30:05;93920.88;;;7.42;80.78
56330;BME280;42236;48.058;10.632;2024-03-08T13:32:53;93920.41;;;7.52;82.39
56330;BME280;42236;48.058;10.632;2024-03-08T13:35:39;93908.78;;;7.48;74.80
56330;BME280;42236;48.058;10.632;2024-03-08T13:38:26;93911.22;;;7.53;77.44
56330;BME280;42236;48.058;10.632;2024-03-08T13:41:12;93908.41;;;7.62;79.71
56330;BME280;42236;48.058;10.632;2024-03-08T13:43:59;93907.66;;;7.61;74.76
56330;BME280;42236;48.058;10.632;2024-03-08T13:46:46;93900.81;;;7.64;75.32
56330;BME280;42236;48.058;10.632;2024-03-08T13:49:32;93906.28;;;7.67;77.39
56330;BME280;42236;48.058;10.632;2024-03-08T13:52:18;93899.56;;;7.74;77.69
56330;BME280;42236;48.058;10.632;2024-03-08T13:55:07;93899.06;;;7.84;75.64
56330;BME280;42236;48.058;10.632;2024-03-08T13:57:53;93891.91;;;7.88;76.00
56330;BME280;42236;48.058;10.632;2024-03-08T14:00:39;93885.84;;;7.91;74.13
56330;BME280;42236;48.058;10.632;2024-03-08T14:03:26;93889.06;;;7.97;75.99
56330;BME280;42236;48.058;10.632;2024-03-08T14:06:12;93885.94;;;7.95;73.13
56330;BME280;42236;48.058;10.632;2024-03-08T14:08:58;93886.13;;;8.02;76.51
56330;BME280;42236;48.058;10.632;2024-03-08T14:11:43;93881.84;;;8.13;76.82
56330;BME280;42236;48.058;10.632;2024-03-08T14:14:33;93874.75;;;8.21;76.80
56330;BME280;42236;48.058;10.632;2024-03-08T14:17:20;93870.94;;;8.22;71.81
56330;BME280;42236;48.058;10.632;2024-03-08T14:20:06;93872.50;;;8.23;75.21
56330;BME280;42236;48.058;10.632;2024-03-08T14:22:54;93860.59;;;8.24;74.59
56330;BME280;42236;48.058;10.632;2024-03-08T14:25:40;93862.25;;;8.28;74.81
56330;BME280;42236;48.058;10.632;2024-03-08T14:28:26;93860.72;;;8.27;75.82
56330;BME280;42236;48.058;10.632;2024-03-08T14:31:14;93857.44;;;8.34;76.32
56330;BME280;42236;48.058;10.632;2024-03-08T14:34:04;93858.28;;;8.38;72.38
56330;BME280;42236;48.058;10.632;2024-03-08T14:36:49;93853.63;;;8.35;74.37